Weather at Qarn Alam Airport

Public forecast

Using degrees Celsius for public forecast. Weather courtesy of forecast.io.

Closest aviation weather report (METAR) to Qarn Alam Airport

Report is more than 6 hours old.

Closest report is Saiq Airport, 106.5 nm (197.2 km) NNE. Retrieved 2018/05/25 04:00 UTC (3 years ago):

OOSQ 250400Z CHECK TEXT NEW ENDING ADDED OEJNYFYX

Closest aviation forecast (TAF) to Qarn Alam Airport

Forecast is more than 12 hours old.

Closest forecast is Saiq Airport, 106.5 nm (197.2 km) NNE. Retrieved 2011/03/16 12:42 UTC (10 years ago):

TAF TAF OOSQ 161115Z 1612/1712 01012KT CAVOK